RYR226B EHAM-EDDF
Flight info
| Callsign | RYR226B |
|---|---|
| Flight time | 0h 43m |
| Altitude | 35000 |
| Route | EDUPO Z739 MISGO DCT DIXAT DIXAT1A |
| Aircraft | B738/M-SDE2E3FGHIRWXY/LB1 |
Departure
| Time | 2026-05-05 19:10 |
|---|---|
| Airport | Amsterdam Airport Schiphol (EHAM) |
Arrival
| Time | 2026-05-05 19:53 |
|---|---|
| Airport | Frankfurt Main Airport (EDDF) |
| Time | Latitude | Longitude | Altitude | Speed | Heading |
|---|---|---|---|---|---|
| 2026-05-05 18:42 | 52.29923 | 4.75333 | -3 ft | 0 kts | 239° |
| 2026-05-05 18:58 | 52.29930 | 4.75354 | -3 ft | 2 kts | 239° |
| 2026-05-05 18:58 | 52.29938 | 4.75377 | -3 ft | 2 kts | 240° |
| 2026-05-05 18:59 | 52.29947 | 4.75413 | -3 ft | 0 kts | 235° |
| 2026-05-05 18:59 | 52.29963 | 4.75377 | -3 ft | 0 kts | 156° |
| 2026-05-05 19:02 | 52.29949 | 4.75389 | -3 ft | 10 kts | 154° |
| 2026-05-05 19:02 | 52.29892 | 4.75428 | -3 ft | 5 kts | 180° |
| 2026-05-05 19:02 | 52.29852 | 4.75375 | -3 ft | 9 kts | 225° |
| 2026-05-05 19:03 | 52.29791 | 4.75301 | -3 ft | 13 kts | 213° |
| 2026-05-05 19:03 | 52.29765 | 4.75272 | -3 ft | 0 kts | 209° |
| 2026-05-05 19:03 | 52.29772 | 4.75273 | -3 ft | 2 kts | 348° |
| 2026-05-05 19:03 | 52.29819 | 4.75232 | -3 ft | 10 kts | 317° |
| 2026-05-05 19:04 | 52.29868 | 4.75143 | -3 ft | 11 kts | 311° |
| 2026-05-05 19:04 | 52.29932 | 4.75025 | -3 ft | 17 kts | 311° |
| 2026-05-05 19:04 | 52.30028 | 4.74847 | -3 ft | 25 kts | 311° |
| 2026-05-05 19:04 | 52.30142 | 4.74636 | -3 ft | 24 kts | 311° |
| 2026-05-05 19:05 | 52.30238 | 4.74456 | -3 ft | 12 kts | 311° |
| 2026-05-05 19:05 | 52.30263 | 4.74409 | -3 ft | 0 kts | 311° |
| 2026-05-05 19:05 | 52.30267 | 4.74402 | -3 ft | 3 kts | 311° |
| 2026-05-05 19:06 | 52.30287 | 4.74365 | -3 ft | 9 kts | 310° |
| 2026-05-05 19:06 | 52.30340 | 4.74217 | -3 ft | 8 kts | 280° |
| 2026-05-05 19:06 | 52.30340 | 4.74150 | -3 ft | 9 kts | 263° |
| 2026-05-05 19:06 | 52.30313 | 4.74046 | -3 ft | 9 kts | 231° |
| 2026-05-05 19:07 | 52.30270 | 4.73978 | -3 ft | 14 kts | 222° |
| 2026-05-05 19:07 | 52.30191 | 4.73832 | -4 ft | 18 kts | 265° |
| 2026-05-05 19:07 | 52.30270 | 4.73741 | -7 ft | 14 kts | 2° |
| 2026-05-05 19:07 | 52.30280 | 4.73741 | -8 ft | 0 kts | 2° |
| 2026-05-05 19:08 | 52.30301 | 4.73743 | -8 ft | 8 kts | 2° |
| 2026-05-05 19:09 | 52.30549 | 4.73767 | -6 ft | 66 kts | 3° |
| 2026-05-05 19:09 | 52.31207 | 4.73827 | -4 ft | 121 kts | 3° |
| 2026-05-05 19:09 | 52.32197 | 4.73909 | 27 ft | 159 kts | 2° |
| 2026-05-05 19:09 | 52.33321 | 4.73980 | 455 ft | 165 kts | 1° |
| 2026-05-05 19:10 | 52.34483 | 4.74238 | 884 ft | 173 kts | 24° |
| 2026-05-05 19:10 | 52.35351 | 4.75569 | 1430 ft | 172 kts | 51° |
| 2026-05-05 19:10 | 52.36199 | 4.77017 | 1977 ft | 185 kts | 42° |
| 2026-05-05 19:10 | 52.37277 | 4.78482 | 2241 ft | 216 kts | 37° |
| 2026-05-05 19:11 | 52.38545 | 4.80041 | 2561 ft | 236 kts | 36° |
| 2026-05-05 19:11 | 52.39925 | 4.81687 | 2920 ft | 256 kts | 35° |
| 2026-05-05 19:11 | 52.41353 | 4.83464 | 3569 ft | 265 kts | 44° |
| 2026-05-05 19:11 | 52.42315 | 4.86005 | 4481 ft | 267 kts | 76° |
| 2026-05-05 19:12 | 52.42467 | 4.89031 | 5353 ft | 269 kts | 90° |
| 2026-05-05 19:12 | 52.42444 | 4.92125 | 5772 ft | 274 kts | 91° |
| 2026-05-05 19:12 | 52.42420 | 4.95282 | 5868 ft | 277 kts | 91° |
| 2026-05-05 19:12 | 52.42053 | 4.98296 | 5920 ft | 273 kts | 116° |
| 2026-05-05 19:13 | 52.40868 | 5.00699 | 5989 ft | 273 kts | 142° |
| 2026-05-05 19:13 | 52.39316 | 5.02525 | 6004 ft | 276 kts | 145° |
| 2026-05-05 19:13 | 52.37744 | 5.04314 | 5993 ft | 274 kts | 145° |
| 2026-05-05 19:13 | 52.36185 | 5.06096 | 5994 ft | 272 kts | 145° |
| 2026-05-05 19:14 | 52.34639 | 5.07873 | 5994 ft | 271 kts | 145° |
| 2026-05-05 19:14 | 52.33131 | 5.09725 | 5997 ft | 271 kts | 137° |
| 2026-05-05 19:14 | 52.31855 | 5.11923 | 6016 ft | 271 kts | 131° |
| 2026-05-05 19:14 | 52.30615 | 5.14290 | 6336 ft | 278 kts | 131° |
| 2026-05-05 19:15 | 52.29343 | 5.16694 | 7201 ft | 279 kts | 131° |
| 2026-05-05 19:15 | 52.28058 | 5.19070 | 8084 ft | 279 kts | 132° |
| 2026-05-05 19:15 | 52.26750 | 5.21454 | 8867 ft | 283 kts | 132° |
| 2026-05-05 19:15 | 52.25422 | 5.23864 | 9629 ft | 287 kts | 132° |
| 2026-05-05 19:16 | 52.24094 | 5.26322 | 10349 ft | 293 kts | 129° |
| 2026-05-05 19:16 | 52.22822 | 5.29088 | 10591 ft | 316 kts | 125° |
| 2026-05-05 19:16 | 52.21518 | 5.32146 | 10781 ft | 339 kts | 124° |
| 2026-05-05 19:16 | 52.20133 | 5.35418 | 10957 ft | 361 kts | 125° |
| 2026-05-05 19:17 | 52.18689 | 5.38802 | 11347 ft | 373 kts | 125° |
| 2026-05-05 19:17 | 52.17191 | 5.42286 | 12004 ft | 377 kts | 125° |
| 2026-05-05 19:17 | 52.15672 | 5.45793 | 12707 ft | 380 kts | 125° |
| 2026-05-05 19:17 | 52.14142 | 5.49308 | 13371 ft | 383 kts | 126° |
| 2026-05-05 19:18 | 52.12580 | 5.52885 | 14013 ft | 387 kts | 126° |
| 2026-05-05 19:18 | 52.11010 | 5.56475 | 14640 ft | 391 kts | 126° |
| 2026-05-05 19:18 | 52.09428 | 5.60088 | 15243 ft | 394 kts | 126° |
| 2026-05-05 19:18 | 52.07824 | 5.63743 | 15844 ft | 398 kts | 126° |
| 2026-05-05 19:19 | 52.06202 | 5.67412 | 16423 ft | 401 kts | 127° |
| 2026-05-05 19:19 | 52.04422 | 5.70915 | 16972 ft | 404 kts | 131° |
| 2026-05-05 19:19 | 52.02549 | 5.74354 | 17532 ft | 408 kts | 131° |
| 2026-05-05 19:19 | 52.00663 | 5.77812 | 18068 ft | 411 kts | 131° |
| 2026-05-05 19:20 | 51.98774 | 5.81309 | 18592 ft | 414 kts | 131° |
| 2026-05-05 19:20 | 51.96872 | 5.84845 | 19099 ft | 417 kts | 131° |
| 2026-05-05 19:20 | 51.94990 | 5.88357 | 19589 ft | 420 kts | 131° |
| 2026-05-05 19:20 | 51.93066 | 5.91951 | 20073 ft | 423 kts | 131° |
| 2026-05-05 19:21 | 51.91127 | 5.95569 | 20544 ft | 426 kts | 131° |
| 2026-05-05 19:21 | 51.89180 | 5.99205 | 20996 ft | 429 kts | 131° |
| 2026-05-05 19:21 | 51.87207 | 6.02876 | 21425 ft | 432 kts | 131° |
| 2026-05-05 19:21 | 51.85229 | 6.06543 | 21864 ft | 435 kts | 131° |
| 2026-05-05 19:22 | 51.83220 | 6.10236 | 22275 ft | 437 kts | 131° |
| 2026-05-05 19:22 | 51.81206 | 6.13931 | 22687 ft | 440 kts | 131° |
| 2026-05-05 19:22 | 51.79178 | 6.17653 | 23069 ft | 443 kts | 131° |
| 2026-05-05 19:22 | 51.77135 | 6.21395 | 23452 ft | 445 kts | 131° |
| 2026-05-05 19:23 | 51.75078 | 6.25147 | 23821 ft | 448 kts | 131° |
| 2026-05-05 19:23 | 51.73009 | 6.28916 | 24179 ft | 450 kts | 131° |
| 2026-05-05 19:23 | 51.70921 | 6.32715 | 24528 ft | 453 kts | 131° |
| 2026-05-05 19:23 | 51.68851 | 6.36486 | 24872 ft | 455 kts | 131° |
| 2026-05-05 19:24 | 51.66752 | 6.40309 | 25189 ft | 457 kts | 131° |
| 2026-05-05 19:24 | 51.64635 | 6.44149 | 25514 ft | 459 kts | 131° |
| 2026-05-05 19:24 | 51.62510 | 6.47998 | 25825 ft | 461 kts | 131° |
| 2026-05-05 19:24 | 51.60367 | 6.51866 | 26117 ft | 464 kts | 132° |
| 2026-05-05 19:25 | 51.58216 | 6.55741 | 26404 ft | 466 kts | 132° |
| 2026-05-05 19:25 | 51.56050 | 6.59644 | 26687 ft | 468 kts | 132° |
| 2026-05-05 19:25 | 51.53878 | 6.63559 | 26964 ft | 469 kts | 132° |
| 2026-05-05 19:25 | 51.51689 | 6.67500 | 27238 ft | 471 kts | 132° |
| 2026-05-05 19:26 | 51.49504 | 6.71426 | 27487 ft | 473 kts | 132° |
| 2026-05-05 19:26 | 51.47298 | 6.75382 | 27734 ft | 475 kts | 132° |
| 2026-05-05 19:26 | 51.45119 | 6.79285 | 28030 ft | 475 kts | 132° |
| 2026-05-05 19:26 | 51.42915 | 6.83227 | 28405 ft | 474 kts | 132° |
| 2026-05-05 19:27 | 51.40712 | 6.87158 | 28797 ft | 472 kts | 131° |
| 2026-05-05 19:27 | 51.38580 | 6.91196 | 28727 ft | 478 kts | 129° |
| 2026-05-05 19:27 | 51.36531 | 6.95353 | 28578 ft | 469 kts | 128° |
| 2026-05-05 19:27 | 51.34544 | 6.99446 | 27913 ft | 465 kts | 128° |
| 2026-05-05 19:28 | 51.32546 | 7.03522 | 26967 ft | 468 kts | 128° |
| 2026-05-05 19:28 | 51.30516 | 7.07600 | 26349 ft | 464 kts | 129° |
| 2026-05-05 19:28 | 51.28470 | 7.11577 | 26215 ft | 467 kts | 133° |
| 2026-05-05 19:28 | 51.26055 | 7.15125 | 26099 ft | 475 kts | 142° |
| 2026-05-05 19:29 | 51.23308 | 7.17995 | 26011 ft | 469 kts | 153° |
| 2026-05-05 19:29 | 51.20387 | 7.20234 | 26011 ft | 464 kts | 155° |
| 2026-05-05 19:29 | 51.17481 | 7.22440 | 26000 ft | 463 kts | 154° |
| 2026-05-05 19:29 | 51.14616 | 7.24682 | 26000 ft | 464 kts | 154° |
| 2026-05-05 19:30 | 51.11723 | 7.26987 | 26001 ft | 464 kts | 152° |
| 2026-05-05 19:30 | 51.08881 | 7.29454 | 25999 ft | 464 kts | 150° |
| 2026-05-05 19:30 | 51.06111 | 7.31983 | 25721 ft | 452 kts | 150° |
| 2026-05-05 19:30 | 51.03401 | 7.34500 | 25064 ft | 450 kts | 150° |
| 2026-05-05 19:31 | 51.00705 | 7.37009 | 24296 ft | 449 kts | 150° |
| 2026-05-05 19:31 | 50.98036 | 7.39482 | 23572 ft | 448 kts | 150° |
| 2026-05-05 19:31 | 50.95351 | 7.41953 | 22948 ft | 444 kts | 150° |
| 2026-05-05 19:31 | 50.92694 | 7.44384 | 22352 ft | 439 kts | 150° |
| 2026-05-05 19:32 | 50.90054 | 7.46789 | 21752 ft | 435 kts | 150° |
| 2026-05-05 19:32 | 50.87438 | 7.49165 | 21157 ft | 430 kts | 150° |
| 2026-05-05 19:32 | 50.84848 | 7.51513 | 20552 ft | 427 kts | 150° |
| 2026-05-05 19:32 | 50.82281 | 7.53837 | 19941 ft | 423 kts | 150° |
| 2026-05-05 19:33 | 50.79763 | 7.56114 | 19373 ft | 419 kts | 150° |
| 2026-05-05 19:33 | 50.77231 | 7.58400 | 18785 ft | 416 kts | 150° |
| 2026-05-05 19:33 | 50.74730 | 7.60656 | 18202 ft | 412 kts | 150° |
| 2026-05-05 19:33 | 50.72240 | 7.62899 | 17599 ft | 409 kts | 150° |
| 2026-05-05 19:34 | 50.69782 | 7.65111 | 17024 ft | 406 kts | 150° |
| 2026-05-05 19:34 | 50.67338 | 7.67307 | 16468 ft | 402 kts | 150° |
| 2026-05-05 19:34 | 50.64913 | 7.69484 | 15889 ft | 399 kts | 150° |
| 2026-05-05 19:35 | 50.60158 | 7.73745 | 15216 ft | 383 kts | 150° |
| 2026-05-05 19:35 | 50.57844 | 7.75815 | 15091 ft | 386 kts | 150° |
| 2026-05-05 19:35 | 50.55512 | 7.77899 | 14983 ft | 387 kts | 150° |
| 2026-05-05 19:35 | 50.53212 | 7.79951 | 14855 ft | 371 kts | 150° |
| 2026-05-05 19:36 | 50.51026 | 7.81933 | 14747 ft | 353 kts | 147° |
| 2026-05-05 19:36 | 50.49235 | 7.84428 | 14613 ft | 337 kts | 128° |
| 2026-05-05 19:36 | 50.48042 | 7.87443 | 14519 ft | 322 kts | 116° |
| 2026-05-05 19:36 | 50.47178 | 7.90611 | 14331 ft | 310 kts | 112° |
| 2026-05-05 19:37 | 50.46378 | 7.93730 | 13938 ft | 307 kts | 112° |
| 2026-05-05 19:37 | 50.45583 | 7.96845 | 13367 ft | 310 kts | 112° |
| 2026-05-05 19:37 | 50.44762 | 8.00042 | 12766 ft | 317 kts | 112° |
| 2026-05-05 19:37 | 50.43934 | 8.03252 | 12450 ft | 315 kts | 112° |
| 2026-05-05 19:38 | 50.43114 | 8.06426 | 12179 ft | 312 kts | 112° |
| 2026-05-05 19:38 | 50.42309 | 8.09527 | 11853 ft | 310 kts | 112° |
| 2026-05-05 19:38 | 50.41493 | 8.12658 | 11523 ft | 309 kts | 112° |
| 2026-05-05 19:38 | 50.40679 | 8.15772 | 11191 ft | 308 kts | 112° |
| 2026-05-05 19:39 | 50.39868 | 8.18867 | 10877 ft | 306 kts | 112° |
| 2026-05-05 19:39 | 50.39061 | 8.21941 | 10586 ft | 304 kts | 112° |
| 2026-05-05 19:39 | 50.38260 | 8.24987 | 10382 ft | 300 kts | 112° |
| 2026-05-05 19:39 | 50.37463 | 8.28016 | 10185 ft | 300 kts | 112° |
| 2026-05-05 19:40 | 50.36666 | 8.31038 | 10056 ft | 298 kts | 112° |
| 2026-05-05 19:40 | 50.35873 | 8.34042 | 10011 ft | 299 kts | 112° |
| 2026-05-05 19:40 | 50.35088 | 8.37010 | 9995 ft | 293 kts | 112° |
| 2026-05-05 19:40 | 50.34312 | 8.39938 | 9941 ft | 288 kts | 112° |
| 2026-05-05 19:41 | 50.33545 | 8.42831 | 9739 ft | 288 kts | 112° |
| 2026-05-05 19:41 | 50.32776 | 8.45724 | 9418 ft | 287 kts | 112° |
| 2026-05-05 19:41 | 50.32004 | 8.48625 | 9059 ft | 288 kts | 112° |
| 2026-05-05 19:41 | 50.31244 | 8.51481 | 8772 ft | 287 kts | 112° |
| 2026-05-05 19:42 | 50.30479 | 8.54351 | 8490 ft | 285 kts | 112° |
| 2026-05-05 19:42 | 50.29713 | 8.57219 | 8194 ft | 284 kts | 112° |
| 2026-05-05 19:42 | 50.28954 | 8.60059 | 7914 ft | 283 kts | 112° |
| 2026-05-05 19:42 | 50.28189 | 8.62921 | 7620 ft | 282 kts | 113° |
| 2026-05-05 19:43 | 50.27437 | 8.65734 | 7357 ft | 280 kts | 112° |
| 2026-05-05 19:43 | 50.26695 | 8.68500 | 7084 ft | 279 kts | 113° |
| 2026-05-05 19:43 | 50.25944 | 8.71290 | 6794 ft | 278 kts | 113° |
| 2026-05-05 19:43 | 50.25198 | 8.74070 | 6514 ft | 277 kts | 113° |
| 2026-05-05 19:44 | 50.24287 | 8.76705 | 6223 ft | 275 kts | 122° |
| 2026-05-05 19:44 | 50.23256 | 8.79221 | 5940 ft | 274 kts | 123° |
| 2026-05-05 19:44 | 50.22223 | 8.81692 | 5660 ft | 272 kts | 123° |
| 2026-05-05 19:44 | 50.21191 | 8.84149 | 5489 ft | 269 kts | 123° |
| 2026-05-05 19:45 | 50.20158 | 8.86604 | 5304 ft | 270 kts | 123° |
| 2026-05-05 19:45 | 50.19120 | 8.89068 | 5122 ft | 270 kts | 123° |
| 2026-05-05 19:45 | 50.18116 | 8.91445 | 5047 ft | 252 kts | 123° |
| 2026-05-05 19:45 | 50.17193 | 8.93640 | 4990 ft | 231 kts | 122° |
| 2026-05-05 19:46 | 50.16263 | 8.95526 | 4981 ft | 207 kts | 141° |
| 2026-05-05 19:46 | 50.15035 | 8.96281 | 4977 ft | 187 kts | 184° |
| 2026-05-05 19:46 | 50.13877 | 8.95473 | 5030 ft | 191 kts | 229° |
| 2026-05-05 19:46 | 50.13370 | 8.93578 | 5034 ft | 193 kts | 263° |
| 2026-05-05 19:47 | 50.13194 | 8.91492 | 5009 ft | 193 kts | 261° |
| 2026-05-05 19:47 | 50.12930 | 8.89450 | 4997 ft | 191 kts | 258° |
| 2026-05-05 19:47 | 50.12636 | 8.87440 | 4998 ft | 191 kts | 255° |
| 2026-05-05 19:47 | 50.12255 | 8.85429 | 4868 ft | 197 kts | 252° |
| 2026-05-05 19:48 | 50.11799 | 8.83393 | 4597 ft | 198 kts | 250° |
| 2026-05-05 19:48 | 50.11331 | 8.81424 | 4324 ft | 193 kts | 250° |
| 2026-05-05 19:48 | 50.10863 | 8.79487 | 4047 ft | 188 kts | 249° |
| 2026-05-05 19:48 | 50.10404 | 8.77589 | 3788 ft | 186 kts | 249° |
| 2026-05-05 19:49 | 50.09947 | 8.75695 | 3531 ft | 187 kts | 249° |
| 2026-05-05 19:49 | 50.09644 | 8.74440 | 3371 ft | 185 kts | 250° |
| 2026-05-05 19:49 | 50.09035 | 8.71915 | 3009 ft | 187 kts | 249° |
| 2026-05-05 19:49 | 50.08579 | 8.70024 | 2757 ft | 188 kts | 249° |
| 2026-05-05 19:50 | 50.08117 | 8.68107 | 2468 ft | 187 kts | 250° |
| 2026-05-05 19:50 | 50.07669 | 8.66243 | 2195 ft | 178 kts | 250° |
| 2026-05-05 19:50 | 50.07254 | 8.64518 | 1947 ft | 165 kts | 250° |
| 2026-05-05 19:50 | 50.06868 | 8.62912 | 1729 ft | 159 kts | 250° |
| 2026-05-05 19:51 | 50.06485 | 8.61304 | 1505 ft | 159 kts | 249° |
| 2026-05-05 19:51 | 50.06095 | 8.59684 | 1270 ft | 160 kts | 250° |
| 2026-05-05 19:51 | 50.05711 | 8.58081 | 1061 ft | 156 kts | 250° |
| 2026-05-05 19:51 | 50.05334 | 8.56504 | 826 ft | 155 kts | 250° |
| 2026-05-05 19:52 | 50.05085 | 8.55466 | 718 ft | 154 kts | 249° |
| 2026-05-05 19:52 | 50.04712 | 8.53905 | 469 ft | 153 kts | 249° |
| 2026-05-05 19:52 | 50.04348 | 8.52401 | 349 ft | 140 kts | 250° |
| 2026-05-05 19:52 | 50.04069 | 8.51234 | 344 ft | 73 kts | 245° |
| 2026-05-05 19:53 | 50.03897 | 8.50909 | 349 ft | 34 kts | 220° |
| 2026-05-05 19:53 | 50.03845 | 8.50848 | 350 ft | 0 kts | 205° |
| 2026-05-05 19:53 | 50.03841 | 8.50846 | 349 ft | 2 kts | 204° |
| 2026-05-05 19:53 | 50.03805 | 8.50845 | 347 ft | 8 kts | 161° |
| 2026-05-05 19:54 | 50.03785 | 8.50872 | 351 ft | 0 kts | 127° |
| 2026-05-05 19:54 | 50.03783 | 8.50880 | 351 ft | 6 kts | 116° |
| 2026-05-05 19:54 | 50.03798 | 8.50995 | 353 ft | 14 kts | 70° |
| 2026-05-05 19:54 | 50.03834 | 8.51151 | 347 ft | 16 kts | 70° |
| 2026-05-05 19:55 | 50.03875 | 8.51320 | 347 ft | 17 kts | 69° |
| 2026-05-05 19:55 | 50.03918 | 8.51500 | 345 ft | 18 kts | 69° |
| 2026-05-05 19:55 | 50.03961 | 8.51685 | 348 ft | 18 kts | 70° |
| 2026-05-05 19:55 | 50.04003 | 8.51863 | 350 ft | 17 kts | 69° |
| 2026-05-05 19:56 | 50.04045 | 8.52032 | 347 ft | 17 kts | 69° |
| 2026-05-05 19:56 | 50.04086 | 8.52196 | 351 ft | 16 kts | 69° |
| 2026-05-05 19:56 | 50.04125 | 8.52354 | 349 ft | 15 kts | 69° |
| 2026-05-05 19:56 | 50.04161 | 8.52507 | 348 ft | 15 kts | 72° |
| 2026-05-05 19:57 | 50.04194 | 8.52654 | 347 ft | 14 kts | 70° |
| 2026-05-05 19:57 | 50.04227 | 8.52794 | 349 ft | 13 kts | 69° |
| 2026-05-05 19:57 | 50.04262 | 8.52936 | 350 ft | 16 kts | 69° |
| 2026-05-05 19:57 | 50.04321 | 8.53174 | 353 ft | 25 kts | 69° |
| 2026-05-05 19:58 | 50.04381 | 8.53421 | 345 ft | 24 kts | 69° |
| 2026-05-05 19:58 | 50.04407 | 8.53665 | 345 ft | 23 kts | 84° |
| 2026-05-05 19:58 | 50.04423 | 8.53905 | 345 ft | 22 kts | 84° |
| 2026-05-05 19:58 | 50.04437 | 8.54138 | 345 ft | 21 kts | 85° |
| 2026-05-05 19:59 | 50.04446 | 8.54295 | 347 ft | 21 kts | 85° |
| 2026-05-05 19:59 | 50.04448 | 8.54511 | 345 ft | 20 kts | 104° |
| 2026-05-05 19:59 | 50.04377 | 8.54697 | 348 ft | 20 kts | 135° |
| 2026-05-05 19:59 | 50.04257 | 8.54803 | 346 ft | 20 kts | 161° |
| 2026-05-05 20:00 | 50.04131 | 8.54875 | 349 ft | 19 kts | 159° |
| 2026-05-05 20:00 | 50.04010 | 8.54948 | 353 ft | 18 kts | 159° |
| 2026-05-05 20:00 | 50.03892 | 8.55016 | 352 ft | 18 kts | 159° |
| 2026-05-05 20:00 | 50.03856 | 8.55133 | 348 ft | 13 kts | 73° |
| 2026-05-05 20:01 | 50.03891 | 8.55292 | 350 ft | 19 kts | 70° |
| 2026-05-05 20:01 | 50.03946 | 8.55521 | 350 ft | 26 kts | 69° |
| 2026-05-05 20:01 | 50.04015 | 8.55811 | 352 ft | 31 kts | 70° |
| 2026-05-05 20:01 | 50.04096 | 8.56144 | 347 ft | 32 kts | 70° |
| 2026-05-05 20:02 | 50.04170 | 8.56457 | 354 ft | 30 kts | 70° |
| 2026-05-05 20:02 | 50.04239 | 8.56747 | 345 ft | 28 kts | 69° |
| 2026-05-05 20:02 | 50.04306 | 8.57026 | 348 ft | 27 kts | 69° |
| 2026-05-05 20:02 | 50.04375 | 8.57311 | 352 ft | 30 kts | 69° |
| 2026-05-05 20:03 | 50.04448 | 8.57621 | 351 ft | 31 kts | 70° |
| 2026-05-05 20:03 | 50.04518 | 8.57912 | 347 ft | 24 kts | 69° |
| 2026-05-05 20:03 | 50.04573 | 8.58147 | 353 ft | 23 kts | 70° |
| 2026-05-05 20:03 | 50.04622 | 8.58350 | 350 ft | 18 kts | 69° |
| 2026-05-05 20:04 | 50.04658 | 8.58501 | 351 ft | 13 kts | 69° |
| 2026-05-05 20:04 | 50.04662 | 8.58515 | 348 ft | 1 kts | 59° |
| 2026-05-05 20:04 | 50.04687 | 8.58543 | 349 ft | 4 kts | 352° |
| 2026-05-05 20:04 | 50.04748 | 8.58566 | 353 ft | 11 kts | 60° |
| 2026-05-05 20:05 | 50.04794 | 8.58700 | 353 ft | 17 kts | 37° |
| 2026-05-05 20:05 | 50.04868 | 8.58695 | 349 ft | 0 kts | 340° |
| 2026-05-05 20:05 | 50.04903 | 8.58642 | 345 ft | 16 kts | 289° |
| 2026-05-05 20:05 | 50.04878 | 8.58475 | 346 ft | 15 kts | 250° |
| 2026-05-05 20:06 | 50.04776 | 8.58041 | 345 ft | 0 kts | 250° |
| 2026-05-05 20:06 | 50.04767 | 8.58034 | 345 ft | 0 kts | 155° |
| 2026-05-05 20:06 | 50.04706 | 8.58031 | 345 ft | 0 kts | 155° |